sensor_id;sensor_type;location;lat;lon;timestamp;P1;durP1;ratioP1;P2;durP2;ratioP2
51312;SDS011;37397;53.226;10.400;2023-05-07T00:00:14;9.05;;;6.32;;
51312;SDS011;37397;53.226;10.400;2023-05-07T00:02:42;8.90;;;5.97;;
51312;SDS011;37397;53.226;10.400;2023-05-07T00:05:08;8.75;;;5.63;;
51312;SDS011;37397;53.226;10.400;2023-05-07T00:07:35;9.75;;;6.50;;
51312;SDS011;37397;53.226;10.400;2023-05-07T00:10:03;10.80;;;7.10;;
51312;SDS011;37397;53.226;10.400;2023-05-07T00:12:32;10.00;;;6.50;;
51312;SDS011;37397;53.226;10.400;2023-05-07T00:15:03;8.45;;;5.85;;
51312;SDS011;37397;53.226;10.400;2023-05-07T00:17:30;9.55;;;6.65;;
51312;SDS011;37397;53.226;10.400;2023-05-07T00:19:56;9.75;;;6.32;;
51312;SDS011;37397;53.226;10.400;2023-05-07T00:22:23;10.40;;;6.50;;
51312;SDS011;37397;53.226;10.400;2023-05-07T00:24:49;10.40;;;7.15;;
51312;SDS011;37397;53.226;10.400;2023-05-07T00:27:16;9.30;;;6.35;;
51312;SDS011;37397;53.226;10.400;2023-05-07T00:29:45;9.40;;;6.68;;
51312;SDS011;37397;53.226;10.400;2023-05-07T00:32:15;9.52;;;6.35;;
51312;SDS011;37397;53.226;10.400;2023-05-07T00:34:42;8.85;;;6.43;;
51312;SDS011;37397;53.226;10.400;2023-05-07T00:37:09;9.57;;;6.75;;
51312;SDS011;37397;53.226;10.400;2023-05-07T00:39:36;9.40;;;6.07;;
51312;SDS011;37397;53.226;10.400;2023-05-07T00:42:02;10.07;;;6.07;;
51312;SDS011;37397;53.226;10.400;2023-05-07T00:44:30;9.13;;;6.30;;
51312;SDS011;37397;53.226;10.400;2023-05-07T00:46:57;10.50;;;6.55;;
51312;SDS011;37397;53.226;10.400;2023-05-07T00:49:35;10.20;;;6.20;;
51312;SDS011;37397;53.226;10.400;2023-05-07T00:52:05;9.57;;;6.45;;
51312;SDS011;37397;53.226;10.400;2023-05-07T00:54:33;9.95;;;6.95;;
51312;SDS011;37397;53.226;10.400;2023-05-07T00:57:01;9.52;;;7.05;;
51312;SDS011;37397;53.226;10.400;2023-05-07T00:59:30;8.70;;;6.40;;
51312;SDS011;37397;53.226;10.400;2023-05-07T01:01:58;9.48;;;7.10;;
51312;SDS011;37397;53.226;10.400;2023-05-07T01:04:26;9.98;;;6.82;;
51312;SDS011;37397;53.226;10.400;2023-05-07T01:06:54;10.10;;;7.30;;
51312;SDS011;37397;53.226;10.400;2023-05-07T01:09:23;10.40;;;6.88;;
51312;SDS011;37397;53.226;10.400;2023-05-07T01:11:51;9.40;;;6.32;;
51312;SDS011;37397;53.226;10.400;2023-05-07T01:14:18;9.55;;;6.63;;
51312;SDS011;37397;53.226;10.400;2023-05-07T01:16:47;9.15;;;6.32;;
51312;SDS011;37397;53.226;10.400;2023-05-07T01:19:18;9.50;;;7.00;;
51312;SDS011;37397;53.226;10.400;2023-05-07T01:21:46;9.48;;;6.63;;
51312;SDS011;37397;53.226;10.400;2023-05-07T01:24:16;10.05;;;6.60;;
51312;SDS011;37397;53.226;10.400;2023-05-07T01:26:43;9.68;;;6.78;;
51312;SDS011;37397;53.226;10.400;2023-05-07T01:29:13;10.35;;;7.22;;
51312;SDS011;37397;53.226;10.400;2023-05-07T01:31:40;9.52;;;6.95;;
51312;SDS011;37397;53.226;10.400;2023-05-07T01:34:08;9.43;;;6.65;;
51312;SDS011;37397;53.226;10.400;2023-05-07T01:36:38;10.65;;;7.20;;
51312;SDS011;37397;53.226;10.400;2023-05-07T01:39:06;10.02;;;7.18;;
51312;SDS011;37397;53.226;10.400;2023-05-07T01:41:32;10.00;;;6.88;;
51312;SDS011;37397;53.226;10.400;2023-05-07T01:43:59;9.65;;;7.13;;
51312;SDS011;37397;53.226;10.400;2023-05-07T01:46:27;10.90;;;6.75;;
51312;SDS011;37397;53.226;10.400;2023-05-07T01:48:54;8.88;;;6.75;;
51312;SDS011;37397;53.226;10.400;2023-05-07T01:51:21;9.30;;;7.00;;
51312;SDS011;37397;53.226;10.400;2023-05-07T01:53:48;9.95;;;6.45;;
51312;SDS011;37397;53.226;10.400;2023-05-07T01:56:18;10.65;;;7.25;;
51312;SDS011;37397;53.226;10.400;2023-05-07T01:58:45;10.40;;;7.10;;
51312;SDS011;37397;53.226;10.400;2023-05-07T02:01:13;9.90;;;6.57;;
51312;SDS011;37397;53.226;10.400;2023-05-07T02:03:41;9.68;;;6.82;;
51312;SDS011;37397;53.226;10.400;2023-05-07T02:06:15;9.07;;;6.43;;
51312;SDS011;37397;53.226;10.400;2023-05-07T02:08:42;10.57;;;7.47;;
51312;SDS011;37397;53.226;10.400;2023-05-07T02:11:10;11.88;;;7.85;;
51312;SDS011;37397;53.226;10.400;2023-05-07T02:13:36;10.20;;;7.47;;
51312;SDS011;37397;53.226;10.400;2023-05-07T02:16:03;10.75;;;7.40;;
51312;SDS011;37397;53.226;10.400;2023-05-07T02:18:29;11.25;;;8.55;;
51312;SDS011;37397;53.226;10.400;2023-05-07T02:20:56;11.90;;;8.32;;
51312;SDS011;37397;53.226;10.400;2023-05-07T02:23:23;13.73;;;9.15;;
51312;SDS011;37397;53.226;10.400;2023-05-07T02:25:50;11.90;;;8.73;;
51312;SDS011;37397;53.226;10.400;2023-05-07T02:28:17;12.98;;;9.70;;
51312;SDS011;37397;53.226;10.400;2023-05-07T02:30:59;12.63;;;9.10;;
51312;SDS011;37397;53.226;10.400;2023-05-07T02:33:27;14.30;;;9.10;;
51312;SDS011;37397;53.226;10.400;2023-05-07T02:35:55;11.98;;;9.07;;
51312;SDS011;37397;53.226;10.400;2023-05-07T02:38:21;12.55;;;9.35;;
51312;SDS011;37397;53.226;10.400;2023-05-07T02:40:48;12.45;;;8.77;;
51312;SDS011;37397;53.226;10.400;2023-05-07T02:43:15;11.73;;;8.52;;
51312;SDS011;37397;53.226;10.400;2023-05-07T02:45:45;13.75;;;8.63;;
51312;SDS011;37397;53.226;10.400;2023-05-07T02:48:13;11.45;;;8.07;;
51312;SDS011;37397;53.226;10.400;2023-05-07T02:50:39;12.80;;;9.10;;
51312;SDS011;37397;53.226;10.400;2023-05-07T02:53:07;13.02;;;8.82;;
51312;SDS011;37397;53.226;10.400;2023-05-07T02:55:33;12.07;;;8.00;;
51312;SDS011;37397;53.226;10.400;2023-05-07T02:58:00;12.07;;;8.73;;
51312;SDS011;37397;53.226;10.400;2023-05-07T03:00:30;11.35;;;7.75;;
51312;SDS011;37397;53.226;10.400;2023-05-07T03:03:08;13.55;;;7.97;;
51312;SDS011;37397;53.226;10.400;2023-05-07T03:05:34;13.00;;;8.50;;
51312;SDS011;37397;53.226;10.400;2023-05-07T03:08:01;12.57;;;8.70;;
51312;SDS011;37397;53.226;10.400;2023-05-07T03:10:28;11.90;;;8.27;;
51312;SDS011;37397;53.226;10.400;2023-05-07T03:12:54;11.55;;;8.32;;
51312;SDS011;37397;53.226;10.400;2023-05-07T03:15:21;10.40;;;8.07;;
51312;SDS011;37397;53.226;10.400;2023-05-07T03:17:48;10.95;;;8.43;;
51312;SDS011;37397;53.226;10.400;2023-05-07T03:20:15;12.98;;;8.88;;
51312;SDS011;37397;53.226;10.400;2023-05-07T03:22:42;11.63;;;8.52;;
51312;SDS011;37397;53.226;10.400;2023-05-07T03:25:08;12.75;;;9.15;;
51312;SDS011;37397;53.226;10.400;2023-05-07T03:27:35;11.90;;;8.18;;
51312;SDS011;37397;53.226;10.400;2023-05-07T03:30:02;11.48;;;8.23;;
51312;SDS011;37397;53.226;10.400;2023-05-07T03:32:29;11.27;;;7.93;;
51312;SDS011;37397;53.226;10.400;2023-05-07T03:34:55;12.57;;;8.48;;
51312;SDS011;37397;53.226;10.400;2023-05-07T03:37:23;11.85;;;8.35;;
51312;SDS011;37397;53.226;10.400;2023-05-07T03:39:49;11.32;;;8.43;;
51312;SDS011;37397;53.226;10.400;2023-05-07T03:42:17;12.40;;;8.55;;
51312;SDS011;37397;53.226;10.400;2023-05-07T03:44:46;12.35;;;9.07;;
51312;SDS011;37397;53.226;10.400;2023-05-07T03:47:13;12.60;;;8.52;;
51312;SDS011;37397;53.226;10.400;2023-05-07T03:49:39;12.48;;;8.82;;
51312;SDS011;37397;53.226;10.400;2023-05-07T03:52:06;12.52;;;8.30;;
51312;SDS011;37397;53.226;10.400;2023-05-07T03:54:33;12.05;;;8.68;;
51312;SDS011;37397;53.226;10.400;2023-05-07T03:56:59;12.82;;;8.50;;
51312;SDS011;37397;53.226;10.400;2023-05-07T03:59:26;12.73;;;9.10;;
51312;SDS011;37397;53.226;10.400;2023-05-07T04:01:53;14.48;;;9.05;;
51312;SDS011;37397;53.226;10.400;2023-05-07T04:04:22;12.43;;;8.43;;
51312;SDS011;37397;53.226;10.400;2023-05-07T04:06:49;13.90;;;9.32;;
51312;SDS011;37397;53.226;10.400;2023-05-07T04:09:15;13.13;;;8.57;;
51312;SDS011;37397;53.226;10.400;2023-05-07T04:11:43;12.43;;;9.15;;
51312;SDS011;37397;53.226;10.400;2023-05-07T04:14:10;13.80;;;9.30;;
51312;SDS011;37397;53.226;10.400;2023-05-07T04:16:37;11.77;;;8.38;;
51312;SDS011;37397;53.226;10.400;2023-05-07T04:19:05;12.05;;;8.60;;
51312;SDS011;37397;53.226;10.400;2023-05-07T04:21:31;13.40;;;9.18;;
51312;SDS011;37397;53.226;10.400;2023-05-07T04:23:58;12.93;;;9.15;;
51312;SDS011;37397;53.226;10.400;2023-05-07T04:26:24;13.65;;;9.52;;
51312;SDS011;37397;53.226;10.400;2023-05-07T04:28:51;15.35;;;9.63;;
51312;SDS011;37397;53.226;10.400;2023-05-07T04:31:17;12.32;;;9.10;;
51312;SDS011;37397;53.226;10.400;2023-05-07T04:33:48;13.05;;;9.10;;
51312;SDS011;37397;53.226;10.400;2023-05-07T04:36:15;14.30;;;9.20;;
51312;SDS011;37397;53.226;10.400;2023-05-07T04:38:48;13.13;;;9.43;;
51312;SDS011;37397;53.226;10.400;2023-05-07T04:41:16;12.95;;;9.27;;
51312;SDS011;37397;53.226;10.400;2023-05-07T04:43:42;13.43;;;9.32;;
51312;SDS011;37397;53.226;10.400;2023-05-07T04:46:11;12.05;;;8.88;;
51312;SDS011;37397;53.226;10.400;2023-05-07T04:48:38;12.75;;;9.13;;
51312;SDS011;37397;53.226;10.400;2023-05-07T04:51:05;12.85;;;8.10;;
51312;SDS011;37397;53.226;10.400;2023-05-07T04:53:33;16.25;;;9.48;;
51312;SDS011;37397;53.226;10.400;2023-05-07T04:56:00;13.18;;;9.13;;
51312;SDS011;37397;53.226;10.400;2023-05-07T04:58:33;13.57;;;9.20;;
51312;SDS011;37397;53.226;10.400;2023-05-07T05:00:59;13.38;;;9.25;;
51312;SDS011;37397;53.226;10.400;2023-05-07T05:03:27;12.85;;;8.25;;
51312;SDS011;37397;53.226;10.400;2023-05-07T05:05:54;14.23;;;8.50;;
51312;SDS011;37397;53.226;10.400;2023-05-07T05:08:22;11.38;;;7.68;;
51312;SDS011;37397;53.226;10.400;2023-05-07T05:10:48;10.95;;;7.70;;
51312;SDS011;37397;53.226;10.400;2023-05-07T05:13:16;13.32;;;8.90;;
51312;SDS011;37397;53.226;10.400;2023-05-07T05:15:43;13.00;;;8.27;;
51312;SDS011;37397;53.226;10.400;2023-05-07T05:18:10;11.88;;;8.13;;
51312;SDS011;37397;53.226;10.400;2023-05-07T05:20:38;12.02;;;8.60;;
51312;SDS011;37397;53.226;10.400;2023-05-07T05:23:07;12.57;;;8.68;;
51312;SDS011;37397;53.226;10.400;2023-05-07T05:25:34;12.55;;;8.48;;
51312;SDS011;37397;53.226;10.400;2023-05-07T05:28:00;12.82;;;8.25;;
51312;SDS011;37397;53.226;10.400;2023-05-07T05:30:28;13.70;;;8.23;;
51312;SDS011;37397;53.226;10.400;2023-05-07T05:32:55;11.98;;;8.23;;
51312;SDS011;37397;53.226;10.400;2023-05-07T05:35:21;12.95;;;8.30;;
51312;SDS011;37397;53.226;10.400;2023-05-07T05:37:48;11.02;;;7.80;;
51312;SDS011;37397;53.226;10.400;2023-05-07T05:40:17;13.15;;;8.65;;
51312;SDS011;37397;53.226;10.400;2023-05-07T05:42:43;15.45;;;9.60;;
51312;SDS011;37397;53.226;10.400;2023-05-07T05:45:11;11.82;;;8.23;;
51312;SDS011;37397;53.226;10.400;2023-05-07T05:47:38;11.63;;;8.43;;
51312;SDS011;37397;53.226;10.400;2023-05-07T05:50:06;13.90;;;9.38;;
51312;SDS011;37397;53.226;10.400;2023-05-07T05:52:34;12.48;;;7.95;;
51312;SDS011;37397;53.226;10.400;2023-05-07T05:55:01;12.30;;;8.43;;
51312;SDS011;37397;53.226;10.400;2023-05-07T05:57:28;12.65;;;8.60;;
51312;SDS011;37397;53.226;10.400;2023-05-07T05:59:55;12.93;;;8.50;;
51312;SDS011;37397;53.226;10.400;2023-05-07T06:02:22;13.02;;;8.27;;
51312;SDS011;37397;53.226;10.400;2023-05-07T06:04:49;11.88;;;7.97;;
51312;SDS011;37397;53.226;10.400;2023-05-07T06:07:18;12.10;;;7.93;;
51312;SDS011;37397;53.226;10.400;2023-05-07T06:09:45;11.73;;;7.07;;
51312;SDS011;37397;53.226;10.400;2023-05-07T06:12:12;12.43;;;7.78;;
51312;SDS011;37397;53.226;10.400;2023-05-07T06:14:38;10.80;;;7.75;;
51312;SDS011;37397;53.226;10.400;2023-05-07T06:17:05;12.55;;;7.80;;
51312;SDS011;37397;53.226;10.400;2023-05-07T06:19:31;11.88;;;7.68;;
51312;SDS011;37397;53.226;10.400;2023-05-07T06:21:59;14.95;;;9.00;;
51312;SDS011;37397;53.226;10.400;2023-05-07T06:24:28;12.25;;;7.93;;
51312;SDS011;37397;53.226;10.400;2023-05-07T06:26:55;12.48;;;7.72;;
51312;SDS011;37397;53.226;10.400;2023-05-07T06:29:22;10.57;;;7.32;;
51312;SDS011;37397;53.226;10.400;2023-05-07T06:31:49;10.50;;;7.18;;
51312;SDS011;37397;53.226;10.400;2023-05-07T06:34:15;14.07;;;8.60;;
51312;SDS011;37397;53.226;10.400;2023-05-07T06:36:42;11.30;;;7.38;;
51312;SDS011;37397;53.226;10.400;2023-05-07T06:39:17;13.02;;;8.25;;
51312;SDS011;37397;53.226;10.400;2023-05-07T06:41:44;14.07;;;8.35;;
51312;SDS011;37397;53.226;10.400;2023-05-07T06:44:20;11.00;;;7.43;;
51312;SDS011;37397;53.226;10.400;2023-05-07T06:46:57;10.75;;;7.55;;
51312;SDS011;37397;53.226;10.400;2023-05-07T06:49:24;10.10;;;6.55;;
51312;SDS011;37397;53.226;10.400;2023-05-07T06:51:50;12.07;;;7.68;;
51312;SDS011;37397;53.226;10.400;2023-05-07T06:54:17;10.18;;;7.05;;
51312;SDS011;37397;53.226;10.400;2023-05-07T06:56:45;10.45;;;7.20;;
51312;SDS011;37397;53.226;10.400;2023-05-07T06:59:12;10.63;;;7.38;;
51312;SDS011;37397;53.226;10.400;2023-05-07T07:01:40;11.57;;;7.57;;
51312;SDS011;37397;53.226;10.400;2023-05-07T07:04:08;11.07;;;7.95;;
51312;SDS011;37397;53.226;10.400;2023-05-07T07:06:35;11.18;;;7.65;;
51312;SDS011;37397;53.226;10.400;2023-05-07T07:09:07;10.52;;;7.80;;
51312;SDS011;37397;53.226;10.400;2023-05-07T07:11:34;11.15;;;7.13;;
51312;SDS011;37397;53.226;10.400;2023-05-07T07:14:00;11.60;;;7.38;;
51312;SDS011;37397;53.226;10.400;2023-05-07T07:16:29;10.48;;;7.05;;
51312;SDS011;37397;53.226;10.400;2023-05-07T07:18:56;12.77;;;7.57;;
51312;SDS011;37397;53.226;10.400;2023-05-07T07:21:22;12.02;;;7.45;;
51312;SDS011;37397;53.226;10.400;2023-05-07T07:23:49;11.35;;;7.50;;
51312;SDS011;37397;53.226;10.400;2023-05-07T07:26:17;10.82;;;6.85;;
51312;SDS011;37397;53.226;10.400;2023-05-07T07:28:44;11.43;;;7.50;;
51312;SDS011;37397;53.226;10.400;2023-05-07T07:31:15;10.77;;;6.95;;
51312;SDS011;37397;53.226;10.400;2023-05-07T07:33:43;11.65;;;7.20;;
51312;SDS011;37397;53.226;10.400;2023-05-07T07:36:09;11.95;;;7.57;;
51312;SDS011;37397;53.226;10.400;2023-05-07T07:38:36;12.88;;;7.35;;
51312;SDS011;37397;53.226;10.400;2023-05-07T07:41:03;11.32;;;6.95;;
51312;SDS011;37397;53.226;10.400;2023-05-07T07:43:30;10.27;;;6.85;;
51312;SDS011;37397;53.226;10.400;2023-05-07T07:45:57;12.93;;;7.78;;
51312;SDS011;37397;53.226;10.400;2023-05-07T07:48:24;9.30;;;6.53;;
51312;SDS011;37397;53.226;10.400;2023-05-07T07:50:51;10.57;;;6.63;;
51312;SDS011;37397;53.226;10.400;2023-05-07T07:53:18;10.52;;;6.85;;
51312;SDS011;37397;53.226;10.400;2023-05-07T07:55:45;10.23;;;6.82;;
51312;SDS011;37397;53.226;10.400;2023-05-07T07:58:15;9.32;;;6.30;;
51312;SDS011;37397;53.226;10.400;2023-05-07T08:00:41;9.07;;;6.32;;
51312;SDS011;37397;53.226;10.400;2023-05-07T08:03:09;9.43;;;6.50;;
51312;SDS011;37397;53.226;10.400;2023-05-07T08:05:41;10.55;;;6.70;;
51312;SDS011;37397;53.226;10.400;2023-05-07T08:08:07;9.20;;;6.60;;
51312;SDS011;37397;53.226;10.400;2023-05-07T08:10:36;9.38;;;6.28;;
51312;SDS011;37397;53.226;10.400;2023-05-07T08:13:10;10.13;;;6.15;;
51312;SDS011;37397;53.226;10.400;2023-05-07T08:15:38;10.05;;;6.38;;
51312;SDS011;37397;53.226;10.400;2023-05-07T08:18:05;10.75;;;6.78;;
51312;SDS011;37397;53.226;10.400;2023-05-07T08:20:33;10.25;;;6.20;;
51312;SDS011;37397;53.226;10.400;2023-05-07T08:23:02;9.52;;;6.93;;
51312;SDS011;37397;53.226;10.400;2023-05-07T08:25:29;10.77;;;6.78;;
51312;SDS011;37397;53.226;10.400;2023-05-07T08:27:56;11.43;;;7.03;;
51312;SDS011;37397;53.226;10.400;2023-05-07T08:30:22;12.02;;;7.10;;
51312;SDS011;37397;53.226;10.400;2023-05-07T08:32:50;11.75;;;6.93;;
51312;SDS011;37397;53.226;10.400;2023-05-07T08:35:16;11.00;;;7.30;;
51312;SDS011;37397;53.226;10.400;2023-05-07T08:37:43;10.70;;;7.07;;
51312;SDS011;37397;53.226;10.400;2023-05-07T08:40:11;11.65;;;7.03;;
51312;SDS011;37397;53.226;10.400;2023-05-07T08:42:40;9.95;;;6.80;;
51312;SDS011;37397;53.226;10.400;2023-05-07T08:45:09;11.60;;;7.05;;
51312;SDS011;37397;53.226;10.400;2023-05-07T08:47:42;11.60;;;7.10;;
51312;SDS011;37397;53.226;10.400;2023-05-07T08:50:15;10.05;;;7.47;;
51312;SDS011;37397;53.226;10.400;2023-05-07T08:52:43;10.63;;;6.75;;
51312;SDS011;37397;53.226;10.400;2023-05-07T08:55:10;9.68;;;6.97;;
51312;SDS011;37397;53.226;10.400;2023-05-07T08:57:39;10.55;;;6.95;;
51312;SDS011;37397;53.226;10.400;2023-05-07T09:00:07;9.95;;;7.18;;
51312;SDS011;37397;53.226;10.400;2023-05-07T09:02:36;10.27;;;6.93;;
51312;SDS011;37397;53.226;10.400;2023-05-07T09:05:04;11.57;;;6.80;;
51312;SDS011;37397;53.226;10.400;2023-05-07T09:07:32;12.40;;;7.30;;
51312;SDS011;37397;53.226;10.400;2023-05-07T09:10:03;11.75;;;7.40;;
51312;SDS011;37397;53.226;10.400;2023-05-07T09:12:32;11.35;;;7.80;;
51312;SDS011;37397;53.226;10.400;2023-05-07T09:15:02;11.02;;;8.00;;
51312;SDS011;37397;53.226;10.400;2023-05-07T09:17:31;10.75;;;7.65;;
51312;SDS011;37397;53.226;10.400;2023-05-07T09:20:04;13.13;;;7.90;;
51312;SDS011;37397;53.226;10.400;2023-05-07T09:22:38;11.27;;;7.43;;
51312;SDS011;37397;53.226;10.400;2023-05-07T09:25:09;13.00;;;8.05;;
51312;SDS011;37397;53.226;10.400;2023-05-07T09:27:37;11.50;;;7.85;;
51312;SDS011;37397;53.226;10.400;2023-05-07T09:30:04;12.07;;;7.95;;
51312;SDS011;37397;53.226;10.400;2023-05-07T09:32:36;10.70;;;7.70;;
51312;SDS011;37397;53.226;10.400;2023-05-07T09:35:16;12.57;;;8.25;;
51312;SDS011;37397;53.226;10.400;2023-05-07T09:37:46;12.68;;;8.00;;
51312;SDS011;37397;53.226;10.400;2023-05-07T09:40:20;11.75;;;7.82;;
51312;SDS011;37397;53.226;10.400;2023-05-07T09:42:49;11.75;;;7.57;;
51312;SDS011;37397;53.226;10.400;2023-05-07T09:45:26;11.25;;;7.13;;
51312;SDS011;37397;53.226;10.400;2023-05-07T09:47:56;11.50;;;7.88;;
51312;SDS011;37397;53.226;10.400;2023-05-07T09:50:29;12.07;;;8.00;;
51312;SDS011;37397;53.226;10.400;2023-05-07T09:52:59;11.93;;;8.35;;
51312;SDS011;37397;53.226;10.400;2023-05-07T09:55:27;10.55;;;7.93;;
51312;SDS011;37397;53.226;10.400;2023-05-07T09:57:54;13.60;;;8.10;;
51312;SDS011;37397;53.226;10.400;2023-05-07T10:00:22;11.40;;;8.13;;
51312;SDS011;37397;53.226;10.400;2023-05-07T10:02:58;12.60;;;8.32;;
51312;SDS011;37397;53.226;10.400;2023-05-07T10:05:35;12.38;;;8.40;;
51312;SDS011;37397;53.226;10.400;2023-05-07T10:08:02;13.82;;;8.40;;
51312;SDS011;37397;53.226;10.400;2023-05-07T10:10:32;11.90;;;8.63;;
51312;SDS011;37397;53.226;10.400;2023-05-07T10:13:01;11.75;;;7.88;;
51312;SDS011;37397;53.226;10.400;2023-05-07T10:15:32;11.18;;;7.78;;
51312;SDS011;37397;53.226;10.400;2023-05-07T10:18:00;11.05;;;8.18;;
51312;SDS011;37397;53.226;10.400;2023-05-07T10:20:28;12.00;;;8.35;;
51312;SDS011;37397;53.226;10.400;2023-05-07T10:22:56;10.25;;;7.70;;
51312;SDS011;37397;53.226;10.400;2023-05-07T10:25:32;12.07;;;7.72;;
51312;SDS011;37397;53.226;10.400;2023-05-07T10:28:06;9.90;;;7.43;;
51312;SDS011;37397;53.226;10.400;2023-05-07T10:30:40;12.45;;;8.57;;
51312;SDS011;37397;53.226;10.400;2023-05-07T10:33:33;13.25;;;7.85;;
51312;SDS011;37397;53.226;10.400;2023-05-07T10:36:01;10.85;;;7.20;;
51312;SDS011;37397;53.226;10.400;2023-05-07T10:38:31;11.60;;;7.70;;
51312;SDS011;37397;53.226;10.400;2023-05-07T10:40:59;11.93;;;7.40;;
51312;SDS011;37397;53.226;10.400;2023-05-07T10:43:38;11.70;;;7.05;;
51312;SDS011;37397;53.226;10.400;2023-05-07T10:51:35;9.63;;;7.18;;
51312;SDS011;37397;53.226;10.400;2023-05-07T10:56:51;10.90;;;6.88;;
51312;SDS011;37397;53.226;10.400;2023-05-07T11:02:05;11.40;;;7.47;;
51312;SDS011;37397;53.226;10.400;2023-05-07T11:04:40;9.57;;;6.93;;
51312;SDS011;37397;53.226;10.400;2023-05-07T11:07:21;10.32;;;6.68;;
51312;SDS011;37397;53.226;10.400;2023-05-07T11:15:02;11.68;;;6.65;;
51312;SDS011;37397;53.226;10.400;2023-05-07T11:17:54;9.88;;;6.25;;
51312;SDS011;37397;53.226;10.400;2023-05-07T11:26:30;10.40;;;6.47;;
51312;SDS011;37397;53.226;10.400;2023-05-07T11:29:11;9.80;;;6.50;;
51312;SDS011;37397;53.226;10.400;2023-05-07T11:31:48;11.02;;;6.78;;
51312;SDS011;37397;53.226;10.400;2023-05-07T11:34:19;9.75;;;6.40;;
51312;SDS011;37397;53.226;10.400;2023-05-07T11:36:48;10.07;;;6.07;;
51312;SDS011;37397;53.226;10.400;2023-05-07T11:39:24;10.13;;;5.63;;
51312;SDS011;37397;53.226;10.400;2023-05-07T11:41:51;10.05;;;5.82;;
51312;SDS011;37397;53.226;10.400;2023-05-07T11:44:18;9.70;;;5.53;;
51312;SDS011;37397;53.226;10.400;2023-05-07T11:46:45;8.98;;;5.85;;
51312;SDS011;37397;53.226;10.400;2023-05-07T11:49:12;7.28;;;5.50;;
51312;SDS011;37397;53.226;10.400;2023-05-07T11:51:38;8.75;;;5.85;;
51312;SDS011;37397;53.226;10.400;2023-05-07T11:54:05;8.48;;;5.40;;
51312;SDS011;37397;53.226;10.400;2023-05-07T11:56:37;7.22;;;5.05;;
51312;SDS011;37397;53.226;10.400;2023-05-07T11:59:04;6.88;;;4.97;;
51312;SDS011;37397;53.226;10.400;2023-05-07T12:01:31;7.75;;;5.00;;
51312;SDS011;37397;53.226;10.400;2023-05-07T12:03:58;7.78;;;5.00;;
51312;SDS011;37397;53.226;10.400;2023-05-07T12:06:24;7.03;;;4.93;;
51312;SDS011;37397;53.226;10.400;2023-05-07T12:08:51;7.47;;;5.10;;
51312;SDS011;37397;53.226;10.400;2023-05-07T12:11:22;7.85;;;5.03;;
51312;SDS011;37397;53.226;10.400;2023-05-07T12:13:50;8.45;;;5.35;;
51312;SDS011;37397;53.226;10.400;2023-05-07T12:16:17;7.20;;;4.95;;
51312;SDS011;37397;53.226;10.400;2023-05-07T12:18:45;6.93;;;4.80;;
51312;SDS011;37397;53.226;10.400;2023-05-07T12:21:12;7.20;;;4.80;;
51312;SDS011;37397;53.226;10.400;2023-05-07T12:23:39;7.72;;;5.00;;
51312;SDS011;37397;53.226;10.400;2023-05-07T12:26:06;8.23;;;5.40;;
51312;SDS011;37397;53.226;10.400;2023-05-07T12:28:37;7.38;;;4.97;;
51312;SDS011;37397;53.226;10.400;2023-05-07T12:31:05;7.45;;;4.57;;
51312;SDS011;37397;53.226;10.400;2023-05-07T12:33:32;7.95;;;4.75;;
51312;SDS011;37397;53.226;10.400;2023-05-07T12:36:00;7.22;;;5.07;;
51312;SDS011;37397;53.226;10.400;2023-05-07T12:38:33;7.70;;;5.15;;
51312;SDS011;37397;53.226;10.400;2023-05-07T12:41:01;6.50;;;4.57;;
51312;SDS011;37397;53.226;10.400;2023-05-07T12:43:28;6.40;;;3.97;;
51312;SDS011;37397;53.226;10.400;2023-05-07T12:45:56;7.88;;;4.40;;
51312;SDS011;37397;53.226;10.400;2023-05-07T12:48:27;7.25;;;4.75;;
51312;SDS011;37397;53.226;10.400;2023-05-07T12:50:54;7.05;;;4.57;;
51312;SDS011;37397;53.226;10.400;2023-05-07T12:53:22;7.68;;;4.60;;
51312;SDS011;37397;53.226;10.400;2023-05-07T12:55:51;6.03;;;4.38;;
51312;SDS011;37397;53.226;10.400;2023-05-07T12:58:26;6.35;;;4.38;;
51312;SDS011;37397;53.226;10.400;2023-05-07T13:00:55;9.15;;;4.20;;
51312;SDS011;37397;53.226;10.400;2023-05-07T13:03:27;6.65;;;4.40;;
51312;SDS011;37397;53.226;10.400;2023-05-07T13:05:56;5.95;;;3.85;;
51312;SDS011;37397;53.226;10.400;2023-05-07T13:08:28;5.50;;;3.80;;
51312;SDS011;37397;53.226;10.400;2023-05-07T13:11:00;7.82;;;3.92;;
51312;SDS011;37397;53.226;10.400;2023-05-07T13:13:31;7.57;;;4.05;;
51312;SDS011;37397;53.226;10.400;2023-05-07T13:15:59;6.43;;;4.32;;
51312;SDS011;37397;53.226;10.400;2023-05-07T13:18:26;5.95;;;4.00;;
51312;SDS011;37397;53.226;10.400;2023-05-07T13:20:55;7.70;;;4.07;;
51312;SDS011;37397;53.226;10.400;2023-05-07T13:23:22;7.35;;;4.35;;
51312;SDS011;37397;53.226;10.400;2023-05-07T13:25:49;6.68;;;4.18;;
51312;SDS011;37397;53.226;10.400;2023-05-07T13:28:16;4.82;;;3.25;;
51312;SDS011;37397;53.226;10.400;2023-05-07T13:30:44;7.53;;;3.92;;
51312;SDS011;37397;53.226;10.400;2023-05-07T13:33:10;5.75;;;3.58;;
51312;SDS011;37397;53.226;10.400;2023-05-07T13:35:37;5.07;;;3.65;;
51312;SDS011;37397;53.226;10.400;2023-05-07T13:38:04;5.93;;;3.90;;
51312;SDS011;37397;53.226;10.400;2023-05-07T13:40:30;5.90;;;3.35;;
51312;SDS011;37397;53.226;10.400;2023-05-07T13:42:57;5.43;;;3.20;;
51312;SDS011;37397;53.226;10.400;2023-05-07T13:45:25;5.22;;;3.05;;
51312;SDS011;37397;53.226;10.400;2023-05-07T13:47:53;7.28;;;3.33;;
51312;SDS011;37397;53.226;10.400;2023-05-07T13:50:19;5.13;;;3.20;;
51312;SDS011;37397;53.226;10.400;2023-05-07T13:52:47;4.40;;;2.95;;
51312;SDS011;37397;53.226;10.400;2023-05-07T13:55:19;5.03;;;3.22;;
51312;SDS011;37397;53.226;10.400;2023-05-07T13:57:46;5.53;;;3.10;;
51312;SDS011;37397;53.226;10.400;2023-05-07T14:00:13;6.05;;;2.95;;
51312;SDS011;37397;53.226;10.400;2023-05-07T14:02:40;4.03;;;2.75;;
51312;SDS011;37397;53.226;10.400;2023-05-07T14:05:07;5.20;;;3.28;;
51312;SDS011;37397;53.226;10.400;2023-05-07T14:07:35;4.38;;;3.05;;
51312;SDS011;37397;53.226;10.400;2023-05-07T14:10:02;4.13;;;2.97;;
51312;SDS011;37397;53.226;10.400;2023-05-07T14:12:29;3.78;;;2.88;;
51312;SDS011;37397;53.226;10.400;2023-05-07T14:14:55;4.97;;;3.00;;
51312;SDS011;37397;53.226;10.400;2023-05-07T14:17:22;4.32;;;3.08;;
51312;SDS011;37397;53.226;10.400;2023-05-07T14:19:51;4.13;;;2.67;;
51312;SDS011;37397;53.226;10.400;2023-05-07T14:22:20;5.97;;;2.75;;
51312;SDS011;37397;53.226;10.400;2023-05-07T14:24:49;3.85;;;2.90;;
51312;SDS011;37397;53.226;10.400;2023-05-07T14:27:31;6.28;;;3.03;;
51312;SDS011;37397;53.226;10.400;2023-05-07T14:29:58;3.67;;;2.75;;
51312;SDS011;37397;53.226;10.400;2023-05-07T14:32:24;5.93;;;2.90;;
51312;SDS011;37397;53.226;10.400;2023-05-07T14:34:51;3.65;;;2.75;;
51312;SDS011;37397;53.226;10.400;2023-05-07T14:37:17;3.97;;;2.67;;
51312;SDS011;37397;53.226;10.400;2023-05-07T14:39:45;4.32;;;2.83;;
51312;SDS011;37397;53.226;10.400;2023-05-07T14:42:15;3.90;;;2.65;;
51312;SDS011;37397;53.226;10.400;2023-05-07T14:44:42;5.18;;;2.90;;
51312;SDS011;37397;53.226;10.400;2023-05-07T14:47:09;5.13;;;3.35;;
51312;SDS011;37397;53.226;10.400;2023-05-07T14:49:35;6.05;;;2.90;;
51312;SDS011;37397;53.226;10.400;2023-05-07T14:52:02;4.70;;;2.95;;
51312;SDS011;37397;53.226;10.400;2023-05-07T14:54:30;4.97;;;3.00;;